createdAt,value
2022-09-09T00:00:04.561Z,1004.50
2022-09-09T00:01:04.552Z,1004.48
2022-09-09T00:02:04.540Z,1004.41
2022-09-09T00:03:04.635Z,1004.44
2022-09-09T00:04:04.562Z,1004.40
2022-09-09T00:05:05.426Z,1004.44
2022-09-09T00:06:04.472Z,1004.45
2022-09-09T00:07:04.478Z,1004.49
2022-09-09T00:08:04.491Z,1004.50
2022-09-09T00:09:04.443Z,1004.48
2022-09-09T00:10:04.443Z,1004.50
2022-09-09T00:11:04.450Z,1004.51
2022-09-09T00:12:04.426Z,1004.48
2022-09-09T00:13:04.496Z,1004.50
2022-09-09T00:14:04.390Z,1004.54
2022-09-09T00:15:04.441Z,1004.59
2022-09-09T00:16:04.391Z,1004.57
2022-09-09T00:17:04.350Z,1004.55
2022-09-09T00:18:04.377Z,1004.58
2022-09-09T00:19:04.346Z,1004.58
2022-09-09T00:20:04.331Z,1004.50
2022-09-09T00:21:04.328Z,1004.49
2022-09-09T00:22:04.307Z,1004.49
2022-09-09T00:23:04.286Z,1004.49
2022-09-09T00:24:04.325Z,1004.49
2022-09-09T00:25:04.395Z,1004.47
2022-09-09T00:26:04.260Z,1004.50
2022-09-09T00:27:04.241Z,1004.48
2022-09-09T00:28:04.237Z,1004.46
2022-09-09T00:29:04.226Z,1004.46
2022-09-09T00:30:04.226Z,1004.50
2022-09-09T00:31:04.241Z,1004.50
2022-09-09T00:32:04.187Z,1004.48
2022-09-09T00:33:04.207Z,1004.51
2022-09-09T00:34:04.177Z,1004.47
2022-09-09T00:35:04.172Z,1004.45
2022-09-09T00:36:04.151Z,1004.45
2022-09-09T00:37:04.154Z,1004.50
2022-09-09T00:38:04.107Z,1004.46
2022-09-09T00:39:04.104Z,1004.47
2022-09-09T00:40:04.146Z,1004.46
2022-09-09T00:41:04.125Z,1004.43
2022-09-09T00:42:04.081Z,1004.45
2022-09-09T00:43:04.070Z,1004.45
2022-09-09T00:44:04.034Z,1004.42
2022-09-09T00:45:04.034Z,1004.47
2022-09-09T00:46:04.117Z,1004.51
2022-09-09T00:47:04.014Z,1004.51
2022-09-09T00:48:04.052Z,1004.49
2022-09-09T00:49:03.993Z,1004.53
2022-09-09T00:50:03.983Z,1004.53
2022-09-09T00:51:03.974Z,1004.52
2022-09-09T00:52:03.954Z,1004.46
2022-09-09T00:53:03.956Z,1004.48
2022-09-09T00:54:03.983Z,1004.51
2022-09-09T00:55:03.925Z,1004.52
2022-09-09T00:56:03.922Z,1004.58
2022-09-09T00:57:03.903Z,1004.52
2022-09-09T00:58:03.910Z,1004.50
2022-09-09T00:59:03.883Z,1004.52
2022-09-09T01:00:03.872Z,1004.47
2022-09-09T01:01:03.908Z,1004.41
2022-09-09T01:02:03.888Z,1004.44
2022-09-09T01:03:03.859Z,1004.38
2022-09-09T01:04:03.880Z,1004.38
2022-09-09T01:05:03.808Z,1004.42
2022-09-09T01:06:03.823Z,1004.40
2022-09-09T01:07:03.795Z,1004.44
2022-09-09T01:08:03.784Z,1004.46
2022-09-09T01:09:03.778Z,1004.37
2022-09-09T01:10:03.780Z,1004.45
2022-09-09T01:11:03.760Z,1004.46
2022-09-09T01:12:03.738Z,1004.43
2022-09-09T01:13:03.731Z,1004.43
2022-09-09T01:14:03.710Z,1004.37
2022-09-09T01:15:03.683Z,1004.42
2022-09-09T01:16:03.724Z,1004.38
2022-09-09T01:17:03.756Z,1004.33
2022-09-09T01:18:03.654Z,1004.35
2022-09-09T01:19:03.671Z,1004.31
2022-09-09T01:20:03.635Z,1004.33
2022-09-09T01:21:03.678Z,1004.32
2022-09-09T01:22:03.645Z,1004.30
2022-09-09T01:23:03.631Z,1004.28
2022-09-09T01:24:03.588Z,1004.26
2022-09-09T01:25:03.614Z,1004.30
2022-09-09T01:26:03.589Z,1004.31
2022-09-09T01:27:03.601Z,1004.26
2022-09-09T01:28:03.566Z,1004.30
2022-09-09T01:29:03.584Z,1004.36
2022-09-09T01:30:03.536Z,1004.28
2022-09-09T01:31:03.581Z,1004.29
2022-09-09T01:32:03.506Z,1004.30
2022-09-09T01:33:03.507Z,1004.26
2022-09-09T01:34:03.476Z,1004.28
2022-09-09T01:35:03.499Z,1004.27
2022-09-09T01:36:03.458Z,1004.28
2022-09-09T01:37:03.454Z,1004.27
2022-09-09T01:38:03.448Z,1004.28
2022-09-09T01:39:03.426Z,1004.32
2022-09-09T01:40:03.474Z,1004.27
2022-09-09T01:41:03.419Z,1004.26
2022-09-09T01:42:03.401Z,1004.24
2022-09-09T01:43:03.378Z,1004.24
2022-09-09T01:44:03.378Z,1004.25
2022-09-09T01:45:03.371Z,1004.22
2022-09-09T01:46:03.456Z,1004.19
2022-09-09T01:47:03.359Z,1004.21
2022-09-09T01:48:03.330Z,1004.19
2022-09-09T01:49:03.325Z,1004.17
2022-09-09T01:50:03.355Z,1004.19
2022-09-09T01:51:03.304Z,1004.18
2022-09-09T01:52:03.312Z,1004.19
2022-09-09T01:53:03.277Z,1004.17
2022-09-09T01:54:03.261Z,1004.21
2022-09-09T01:55:03.273Z,1004.27
2022-09-09T01:56:03.243Z,1004.24
2022-09-09T01:57:03.215Z,1004.23
2022-09-09T01:58:03.215Z,1004.19
2022-09-09T01:59:03.256Z,1004.19
2022-09-09T02:00:03.196Z,1004.18
2022-09-09T02:01:03.286Z,1004.23
2022-09-09T02:02:03.292Z,1004.20
2022-09-09T02:03:03.176Z,1004.19
2022-09-09T02:04:03.144Z,1004.19
2022-09-09T02:05:03.165Z,1004.26
2022-09-09T02:06:03.136Z,1004.24
2022-09-09T02:07:03.118Z,1004.27
2022-09-09T02:08:03.113Z,1004.21
2022-09-09T02:09:03.086Z,1004.27
2022-09-09T02:10:03.085Z,1004.18
2022-09-09T02:11:03.118Z,1004.22
2022-09-09T02:12:03.048Z,1004.24
2022-09-09T02:13:03.071Z,1004.24
2022-09-09T02:14:03.070Z,1004.23
2022-09-09T02:15:03.019Z,1004.21
2022-09-09T02:16:03.008Z,1004.22
2022-09-09T02:17:03.055Z,1004.26
2022-09-09T02:18:02.998Z,1004.17
2022-09-09T02:19:02.990Z,1004.16
2022-09-09T02:20:02.969Z,1004.21
2022-09-09T02:21:02.967Z,1004.17
2022-09-09T02:22:02.985Z,1004.17
2022-09-09T02:23:02.981Z,1004.13
2022-09-09T02:24:02.938Z,1004.18
2022-09-09T02:25:02.922Z,1004.19
2022-09-09T02:26:02.907Z,1004.14
2022-09-09T02:27:02.901Z,1004.17
2022-09-09T02:28:02.879Z,1004.14
2022-09-09T02:29:02.869Z,1004.17
2022-09-09T02:30:02.868Z,1004.14
2022-09-09T02:31:02.896Z,1004.11
2022-09-09T02:32:02.874Z,1004.14
2022-09-09T02:33:02.827Z,1004.17
2022-09-09T02:34:02.868Z,1004.20
2022-09-09T02:35:02.805Z,1004.20
2022-09-09T02:36:02.824Z,1004.19
2022-09-09T02:37:02.812Z,1004.13
2022-09-09T02:38:02.775Z,1004.18
2022-09-09T02:39:02.764Z,1004.19
2022-09-09T02:40:02.862Z,1004.20
2022-09-09T02:41:02.735Z,1004.21
2022-09-09T02:42:02.719Z,1004.18
2022-09-09T02:43:02.696Z,1004.19
2022-09-09T02:44:02.706Z,1004.18
2022-09-09T02:45:02.672Z,1004.20
2022-09-09T02:46:02.770Z,1004.17
2022-09-09T02:47:02.662Z,1004.16
2022-09-09T02:48:02.638Z,1004.18
2022-09-09T02:49:02.676Z,1004.16
2022-09-09T02:50:02.635Z,1004.17
2022-09-09T02:51:02.608Z,1004.13
2022-09-09T02:52:02.655Z,1004.07
2022-09-09T02:53:02.612Z,1004.11
2022-09-09T02:54:02.593Z,1004.14
2022-09-09T02:55:02.574Z,1004.09
2022-09-09T02:56:02.632Z,1004.05
2022-09-09T02:57:02.550Z,1004.05
2022-09-09T02:58:02.580Z,1004.08
2022-09-09T02:59:02.561Z,1004.07
2022-09-09T03:00:02.548Z,1004.05
2022-09-09T03:01:02.554Z,1004.09
2022-09-09T03:02:02.561Z,1004.01
2022-09-09T03:03:02.518Z,1004.06
2022-09-09T03:04:02.560Z,1004.09
2022-09-09T03:05:02.453Z,1004.06
2022-09-09T03:06:02.453Z,1004.10
2022-09-09T03:07:02.488Z,1004.09
2022-09-09T03:08:02.458Z,1004.10
2022-09-09T03:09:02.414Z,1004.03
2022-09-09T03:10:02.402Z,1004.05
2022-09-09T03:11:02.442Z,1004.11
2022-09-09T03:12:02.375Z,1004.08
2022-09-09T03:13:02.399Z,1004.08
2022-09-09T03:14:02.385Z,1004.02
2022-09-09T03:15:02.367Z,1004.07
2022-09-09T03:16:02.343Z,1004.01
2022-09-09T03:17:02.363Z,1004.07
2022-09-09T03:18:02.315Z,1004.05
2022-09-09T03:19:03.306Z,1004.07
2022-09-09T03:20:02.289Z,1004.03
2022-09-09T03:21:02.295Z,1004.07
2022-09-09T03:22:02.289Z,1004.04
2022-09-09T03:23:02.277Z,1004.05
2022-09-09T03:24:02.270Z,1004.01
2022-09-09T03:25:02.270Z,1004.03
2022-09-09T03:26:02.238Z,1004.07
2022-09-09T03:27:02.230Z,1004.06
2022-09-09T03:28:02.207Z,1003.94
2022-09-09T03:29:02.189Z,1004.00
2022-09-09T03:30:02.219Z,1003.94
2022-09-09T03:31:02.168Z,1003.95
2022-09-09T03:32:02.249Z,1004.00
2022-09-09T03:33:02.215Z,1003.96
2022-09-09T03:34:02.181Z,1003.98
2022-09-09T03:35:02.146Z,1003.95
2022-09-09T03:36:02.143Z,1003.96
2022-09-09T03:37:02.136Z,1003.97
2022-09-09T03:38:02.106Z,1003.97
2022-09-09T03:39:02.133Z,1004.07
2022-09-09T03:40:02.130Z,1003.97
2022-09-09T03:41:02.081Z,1003.98
2022-09-09T03:42:02.063Z,1003.94
2022-09-09T03:43:02.070Z,1003.96
2022-09-09T03:44:02.028Z,1004.01
2022-09-09T03:45:02.029Z,1004.03
2022-09-09T03:46:02.071Z,1004.02
2022-09-09T03:47:01.993Z,1003.98
2022-09-09T03:48:02.017Z,1004.02
2022-09-09T03:49:02.005Z,1004.03
2022-09-09T03:50:01.969Z,1003.98
2022-09-09T03:51:01.968Z,1004.02
2022-09-09T03:52:01.936Z,1004.07
2022-09-09T03:53:02.886Z,1004.02
2022-09-09T03:54:01.946Z,1004.01
2022-09-09T03:55:01.918Z,1004.03
2022-09-09T03:56:01.918Z,1004.00
2022-09-09T03:57:01.921Z,1003.97
2022-09-09T03:58:01.868Z,1003.95
2022-09-09T03:59:01.857Z,1003.99
2022-09-09T04:00:01.892Z,1003.96
2022-09-09T04:01:01.923Z,1003.98
2022-09-09T04:02:01.919Z,1003.92
2022-09-09T04:03:02.185Z,1003.95
2022-09-09T04:04:01.815Z,1003.91
2022-09-09T04:05:01.815Z,1004.00
2022-09-09T04:06:03.240Z,1003.99
2022-09-09T04:07:01.791Z,1003.96
2022-09-09T04:08:02.030Z,1003.98
2022-09-09T04:09:01.787Z,1003.99
2022-09-09T04:10:02.698Z,1003.95
2022-09-09T04:11:01.831Z,1003.92
2022-09-09T04:12:01.732Z,1003.94
2022-09-09T04:13:01.863Z,1003.93
2022-09-09T04:14:01.732Z,1003.95
2022-09-09T04:15:01.689Z,1003.97
2022-09-09T04:16:01.796Z,1004.03
2022-09-09T04:17:01.668Z,1004.05
2022-09-09T04:18:01.674Z,1004.00
2022-09-09T04:19:01.664Z,1003.99
2022-09-09T04:20:01.636Z,1003.98
2022-09-09T04:21:01.635Z,1003.98
2022-09-09T04:22:02.100Z,1003.99
2022-09-09T04:23:01.649Z,1004.00
2022-09-09T04:24:01.611Z,1003.96
2022-09-09T04:25:01.683Z,1004.03
2022-09-09T04:26:01.568Z,1004.02
2022-09-09T04:27:01.576Z,1004.03
2022-09-09T04:28:01.555Z,1004.01
2022-09-09T04:29:01.650Z,1004.10
2022-09-09T04:30:01.763Z,1004.02
2022-09-09T04:31:02.333Z,1004.04
2022-09-09T04:32:01.898Z,1004.05
2022-09-09T04:33:01.621Z,1004.04
2022-09-09T04:34:01.487Z,1004.04
2022-09-09T04:35:01.510Z,1004.00
2022-09-09T04:36:01.470Z,1004.11
2022-09-09T04:37:01.601Z,1004.04
2022-09-09T04:38:02.262Z,1004.00
2022-09-09T04:39:01.425Z,1003.99
2022-09-09T04:40:01.493Z,1004.03
2022-09-09T04:41:01.676Z,1004.01
2022-09-09T04:42:01.403Z,1004.02
2022-09-09T04:43:01.425Z,1003.96
2022-09-09T04:44:01.469Z,1003.99
2022-09-09T04:45:01.389Z,1003.99
2022-09-09T04:46:01.428Z,1004.03
2022-09-09T04:47:01.359Z,1004.01
2022-09-09T04:48:01.360Z,1004.02
2022-09-09T04:49:01.401Z,1004.00
2022-09-09T04:50:01.358Z,1004.01
2022-09-09T04:51:01.296Z,1004.01
2022-09-09T04:52:01.278Z,1003.96
2022-09-09T04:53:01.273Z,1004.06
2022-09-09T04:54:01.361Z,1004.01
2022-09-09T04:55:02.241Z,1003.98
2022-09-09T04:56:01.478Z,1004.03
2022-09-09T04:57:01.563Z,1004.07
2022-09-09T04:58:01.237Z,1004.12
2022-09-09T04:59:01.215Z,1004.10
2022-09-09T05:00:01.256Z,1004.10
2022-09-09T05:01:01.214Z,1004.08
2022-09-09T05:02:01.207Z,1004.03
2022-09-09T05:03:01.260Z,1004.10
2022-09-09T05:04:01.150Z,1004.07
2022-09-09T05:05:01.141Z,1004.10
2022-09-09T05:06:01.129Z,1004.03
2022-09-09T05:07:01.171Z,1004.01
2022-09-09T05:08:02.052Z,1003.97
2022-09-09T05:09:01.089Z,1003.98
2022-09-09T05:10:01.081Z,1004.02
2022-09-09T05:11:01.058Z,1003.99
2022-09-09T05:12:01.150Z,1003.99
2022-09-09T05:13:01.114Z,1003.98
2022-09-09T05:14:01.043Z,1004.02
2022-09-09T05:15:01.030Z,1004.01
2022-09-09T05:16:01.088Z,1003.96
2022-09-09T05:17:01.003Z,1003.99
2022-09-09T05:18:01.011Z,1003.97
2022-09-09T05:19:00.982Z,1003.98
2022-09-09T05:20:00.971Z,1004.02
2022-09-09T05:21:00.946Z,1003.97
2022-09-09T05:22:00.961Z,1003.99
2022-09-09T05:23:00.972Z,1003.99
2022-09-09T05:24:00.914Z,1003.95
2022-09-09T05:25:00.955Z,1003.94
2022-09-09T05:26:00.945Z,1004.00
2022-09-09T05:27:00.931Z,1003.94
2022-09-09T05:28:01.362Z,1003.87
2022-09-09T05:29:00.850Z,1003.92
2022-09-09T05:30:00.854Z,1003.86
2022-09-09T05:31:00.881Z,1003.88
2022-09-09T05:32:00.890Z,1003.86
2022-09-09T05:33:00.818Z,1003.88
2022-09-09T05:34:00.865Z,1003.88
2022-09-09T05:35:00.808Z,1003.81
2022-09-09T05:36:00.925Z,1003.88
2022-09-09T05:37:00.883Z,1003.83
2022-09-09T05:38:00.768Z,1003.82
2022-09-09T05:39:00.913Z,1003.83
2022-09-09T05:40:00.781Z,1003.87
2022-09-09T05:41:00.733Z,1003.84
2022-09-09T05:42:00.698Z,1003.85
2022-09-09T05:43:00.709Z,1003.89
2022-09-09T05:44:00.938Z,1003.91
2022-09-09T05:45:00.824Z,1003.88
2022-09-09T05:46:00.691Z,1003.89
2022-09-09T05:47:00.707Z,1003.86
2022-09-09T05:48:00.709Z,1003.89
2022-09-09T05:49:00.651Z,1003.89
2022-09-09T05:50:01.601Z,1003.91
2022-09-09T05:51:00.668Z,1003.93
2022-09-09T05:52:00.614Z,1003.89
2022-09-09T05:53:00.596Z,1003.89
2022-09-09T05:54:00.598Z,1003.91
2022-09-09T05:55:00.589Z,1003.93
2022-09-09T05:56:00.583Z,1003.96
2022-09-09T05:57:00.604Z,1003.95
2022-09-09T05:58:00.584Z,1003.95
2022-09-09T05:59:00.543Z,1003.99
2022-09-09T06:00:00.524Z,1004.03
2022-09-09T06:01:00.525Z,1004.04
2022-09-09T06:02:02.113Z,1004.05
2022-09-09T06:03:00.637Z,1003.97
2022-09-09T06:04:00.520Z,1003.98
2022-09-09T06:05:00.828Z,1003.99
2022-09-09T06:06:00.466Z,1004.00
2022-09-09T06:07:00.447Z,1003.99
2022-09-09T06:08:01.446Z,1003.98
2022-09-09T06:09:00.407Z,1004.04
2022-09-09T06:10:00.410Z,1003.99
2022-09-09T06:11:00.408Z,1004.02
2022-09-09T06:12:00.397Z,1004.02
2022-09-09T06:13:01.348Z,1004.10
2022-09-09T06:14:00.395Z,1004.02
2022-09-09T06:15:00.348Z,1004.06
2022-09-09T06:16:01.861Z,1004.04
2022-09-09T06:17:00.388Z,1004.08
2022-09-09T06:18:00.336Z,1004.08
2022-09-09T06:19:00.444Z,1004.04
2022-09-09T06:20:00.312Z,1004.00
2022-09-09T06:21:01.012Z,1004.05
2022-09-09T06:22:00.297Z,1004.10
2022-09-09T06:23:00.463Z,1004.05
2022-09-09T06:24:01.240Z,1004.08
2022-09-09T06:25:00.303Z,1004.11
2022-09-09T06:26:00.236Z,1004.13
2022-09-09T06:27:00.589Z,1004.12
2022-09-09T06:28:00.226Z,1004.12
2022-09-09T06:29:00.206Z,1004.12
2022-09-09T06:30:00.244Z,1004.15
2022-09-09T06:31:01.183Z,1004.17
2022-09-09T06:32:00.261Z,1004.18
2022-09-09T06:33:00.471Z,1004.14
2022-09-09T06:34:00.143Z,1004.11
2022-09-09T06:35:00.132Z,1004.08
2022-09-09T06:36:00.146Z,1004.10
2022-09-09T06:37:00.150Z,1004.10
2022-09-09T06:38:01.065Z,1004.08
2022-09-09T06:39:00.107Z,1004.11
2022-09-09T06:40:00.229Z,1004.11
2022-09-09T06:41:00.068Z,1004.08
2022-09-09T06:42:00.066Z,1004.08
2022-09-09T06:43:00.180Z,1004.07
2022-09-09T06:44:00.055Z,1004.05
2022-09-09T06:45:00.015Z,1004.06
2022-09-09T06:45:59.992Z,1004.08
2022-09-09T06:47:00.158Z,1004.11
2022-09-09T06:48:00.028Z,1004.18
2022-09-09T06:48:59.985Z,1004.11
2022-09-09T06:49:59.961Z,1004.19
2022-09-09T06:50:59.968Z,1004.16
2022-09-09T06:51:59.969Z,1004.21
2022-09-09T06:52:59.937Z,1004.25
2022-09-09T06:54:00.256Z,1004.18
2022-09-09T06:55:10.134Z,1004.16
2022-09-09T06:55:59.908Z,1004.24
2022-09-09T06:57:02.478Z,1004.17
2022-09-09T06:58:02.360Z,1004.16
2022-09-09T06:58:59.862Z,1004.12
2022-09-09T06:59:59.873Z,1004.13
2022-09-09T07:00:59.994Z,1004.18
2022-09-09T07:01:59.853Z,1004.15
2022-09-09T07:03:01.285Z,1004.17
2022-09-09T07:03:59.828Z,1004.16
2022-09-09T07:04:59.814Z,1004.16
2022-09-09T07:05:59.853Z,1004.19
2022-09-09T07:07:01.249Z,1004.14
2022-09-09T07:07:59.774Z,1004.25
2022-09-09T07:08:59.746Z,1004.19
2022-09-09T07:09:59.764Z,1004.26
2022-09-09T07:10:59.759Z,1004.20
2022-09-09T07:11:59.909Z,1004.21
2022-09-09T07:12:59.730Z,1004.28
2022-09-09T07:13:59.676Z,1004.26
2022-09-09T07:14:59.676Z,1004.27
2022-09-09T07:15:59.712Z,1004.19
2022-09-09T07:17:00.022Z,1004.18
2022-09-09T07:17:59.651Z,1004.23
2022-09-09T07:18:59.669Z,1004.24
2022-09-09T07:19:59.685Z,1004.27
2022-09-09T07:20:59.661Z,1004.25
2022-09-09T07:21:59.609Z,1004.30
2022-09-09T07:22:59.594Z,1004.27
2022-09-09T07:23:59.599Z,1004.23
2022-09-09T07:24:59.613Z,1004.29
2022-09-09T07:25:59.585Z,1004.30
2022-09-09T07:26:59.572Z,1004.29
2022-09-09T07:27:59.535Z,1004.28
2022-09-09T07:28:59.531Z,1004.29
2022-09-09T07:29:59.552Z,1004.38
2022-09-09T07:30:59.572Z,1004.35
2022-09-09T07:31:59.555Z,1004.42
2022-09-09T07:32:59.704Z,1004.35
2022-09-09T07:33:59.473Z,1004.41
2022-09-09T07:34:59.463Z,1004.38
2022-09-09T07:35:59.472Z,1004.43
2022-09-09T07:36:59.483Z,1004.44
2022-09-09T07:37:59.423Z,1004.43
2022-09-09T07:38:59.458Z,1004.50
2022-09-09T07:39:59.479Z,1004.50
2022-09-09T07:41:00.376Z,1004.52
2022-09-09T07:41:59.480Z,1004.45
2022-09-09T07:42:59.404Z,1004.47
2022-09-09T07:43:59.421Z,1004.50
2022-09-09T07:44:59.374Z,1004.45
2022-09-09T07:45:59.354Z,1004.46
2022-09-09T07:46:59.488Z,1004.45
2022-09-09T07:47:59.330Z,1004.52
2022-09-09T07:49:00.296Z,1004.53
2022-09-09T07:49:59.426Z,1004.49
2022-09-09T07:50:59.297Z,1004.49
2022-09-09T07:51:59.339Z,1004.55
2022-09-09T07:52:59.287Z,1004.58
2022-09-09T07:53:59.259Z,1004.61
2022-09-09T07:55:01.389Z,1004.60
2022-09-09T07:55:59.263Z,1004.52
2022-09-09T07:57:00.290Z,1004.53
2022-09-09T07:57:59.199Z,1004.55
2022-09-09T07:58:59.222Z,1004.53
2022-09-09T07:59:59.194Z,1004.54
2022-09-09T08:00:59.179Z,1004.55
2022-09-09T08:01:59.253Z,1004.52
2022-09-09T08:02:59.235Z,1004.55
2022-09-09T08:03:59.132Z,1004.56
2022-09-09T08:04:59.139Z,1004.59
2022-09-09T08:05:59.124Z,1004.58
2022-09-09T08:06:59.122Z,1004.63
2022-09-09T08:07:59.182Z,1004.62
2022-09-09T08:08:59.133Z,1004.58
2022-09-09T08:09:59.115Z,1004.57
2022-09-09T08:10:59.062Z,1004.58
2022-09-09T08:11:59.087Z,1004.58
2022-09-09T08:13:16.777Z,1004.59
2022-09-09T08:14:02.333Z,1004.59
2022-09-09T08:14:59.088Z,1004.64
2022-09-09T08:15:59.050Z,1004.63
2022-09-09T08:16:59.009Z,1004.62
2022-09-09T08:17:59.010Z,1004.60
2022-09-09T08:18:58.992Z,1004.60
2022-09-09T08:19:58.980Z,1004.65
2022-09-09T08:20:59.773Z,1004.60
2022-09-09T08:21:58.949Z,1004.59
2022-09-09T08:22:58.969Z,1004.58
2022-09-09T08:23:58.943Z,1004.59
2022-09-09T08:24:58.920Z,1004.55
2022-09-09T08:25:58.923Z,1004.55
2022-09-09T08:26:58.939Z,1004.54
2022-09-09T08:27:58.878Z,1004.55
2022-09-09T08:28:58.881Z,1004.53
2022-09-09T08:29:58.870Z,1004.56
2022-09-09T08:30:58.884Z,1004.56
2022-09-09T08:31:58.953Z,1004.58
2022-09-09T08:32:58.890Z,1004.54
2022-09-09T08:33:58.806Z,1004.64
2022-09-09T08:35:01.065Z,1004.60
2022-09-09T08:35:58.800Z,1004.59
2022-09-09T08:36:58.780Z,1004.61
2022-09-09T08:37:58.788Z,1004.63
2022-09-09T08:38:58.805Z,1004.56
2022-09-09T08:39:58.786Z,1004.58
2022-09-09T08:40:58.733Z,1004.56
2022-09-09T08:41:58.751Z,1004.59
2022-09-09T08:42:58.698Z,1004.52
2022-09-09T08:43:58.704Z,1004.61
2022-09-09T08:44:58.743Z,1004.57
2022-09-09T08:45:58.766Z,1004.55
2022-09-09T08:46:58.701Z,1004.54
2022-09-09T08:47:58.646Z,1004.54
2022-09-09T08:48:58.651Z,1004.59
2022-09-09T08:49:58.655Z,1004.57
2022-09-09T08:50:58.658Z,1004.59
2022-09-09T08:51:58.597Z,1004.56
2022-09-09T08:52:58.617Z,1004.57
2022-09-09T08:53:59.911Z,1004.54
2022-09-09T08:54:58.594Z,1004.48
2022-09-09T08:55:58.609Z,1004.59
2022-09-09T08:56:58.558Z,1004.48
2022-09-09T08:57:58.540Z,1004.49
2022-09-09T08:58:58.529Z,1004.53
2022-09-09T08:59:58.552Z,1004.47
2022-09-09T09:00:58.513Z,1004.48
2022-09-09T09:01:58.603Z,1004.48
2022-09-09T09:02:58.503Z,1004.50
2022-09-09T09:03:58.497Z,1004.54
2022-09-09T09:04:58.507Z,1004.41
2022-09-09T09:05:58.452Z,1004.42
2022-09-09T09:06:58.483Z,1004.45
2022-09-09T09:07:58.515Z,1004.51
2022-09-09T09:08:58.428Z,1004.51
2022-09-09T09:09:58.412Z,1004.52
2022-09-09T09:10:58.412Z,1004.53
2022-09-09T09:11:58.384Z,1004.53
2022-09-09T09:12:58.375Z,1004.57
2022-09-09T09:13:58.423Z,1004.58
2022-09-09T09:14:58.359Z,1004.57
2022-09-09T09:15:58.391Z,1004.58
2022-09-09T09:16:58.336Z,1004.58
2022-09-09T09:17:58.316Z,1004.66
2022-09-09T09:18:58.320Z,1004.64
2022-09-09T09:19:58.336Z,1004.69
2022-09-09T09:20:58.323Z,1004.63
2022-09-09T09:21:58.280Z,1004.66
2022-09-09T09:22:59.322Z,1004.59
2022-09-09T09:23:58.291Z,1004.65
2022-09-09T09:24:58.285Z,1004.66
2022-09-09T09:25:58.234Z,1004.66
2022-09-09T09:26:58.251Z,1004.60
2022-09-09T09:27:58.248Z,1004.58
2022-09-09T09:28:58.249Z,1004.55
2022-09-09T09:30:22.545Z,1004.62
2022-09-09T09:30:59.270Z,1004.64
2022-09-09T09:31:58.239Z,1004.62
2022-09-09T09:32:58.158Z,1004.63
2022-09-09T09:33:58.192Z,1004.67
2022-09-09T09:34:58.178Z,1004.71
2022-09-09T09:35:58.122Z,1004.70
2022-09-09T09:36:58.118Z,1004.69
2022-09-09T09:40:58.132Z,1004.66
2022-09-09T09:41:58.083Z,1004.60
2022-09-09T09:42:58.043Z,1004.70
2022-09-09T09:43:58.050Z,1004.68
2022-09-09T09:44:58.047Z,1004.69
2022-09-09T09:46:14.340Z,1004.71
2022-09-09T09:46:59.085Z,1004.71
2022-09-09T09:48:02.089Z,1004.76
2022-09-09T09:48:58.996Z,1004.68
2022-09-09T09:49:57.997Z,1004.74
2022-09-09T09:50:57.962Z,1004.70
2022-09-09T09:51:57.955Z,1004.74
2022-09-09T09:52:57.985Z,1004.72
2022-09-09T09:53:57.949Z,1004.70
2022-09-09T09:54:57.943Z,1004.76
2022-09-09T09:55:57.911Z,1004.66
2022-09-09T09:56:57.906Z,1004.69
2022-09-09T09:57:57.985Z,1004.63
2022-09-09T09:58:58.818Z,1004.74
2022-09-09T09:59:57.860Z,1004.67
2022-09-09T10:00:58.026Z,1004.62
2022-09-09T10:01:57.902Z,1004.57
2022-09-09T10:02:57.841Z,1004.66
2022-09-09T10:03:58.642Z,1004.68
2022-09-09T10:04:57.862Z,1004.60
2022-09-09T10:05:57.811Z,1004.67
2022-09-09T10:06:57.798Z,1004.65
2022-09-09T10:07:57.804Z,1004.68
2022-09-09T10:08:57.767Z,1004.65
2022-09-09T10:09:58.572Z,1004.63
2022-09-09T10:10:57.763Z,1004.70
2022-09-09T10:11:57.750Z,1004.67
2022-09-09T10:12:57.763Z,1004.64
2022-09-09T10:13:57.742Z,1004.66
2022-09-09T10:14:57.778Z,1004.63
2022-09-09T10:16:00.187Z,1004.60
2022-09-09T10:16:57.792Z,1004.60
2022-09-09T10:17:57.792Z,1004.59
2022-09-09T10:18:57.661Z,1004.57
2022-09-09T10:19:57.702Z,1004.58
2022-09-09T10:20:57.653Z,1004.55
2022-09-09T10:21:57.711Z,1004.53
2022-09-09T10:22:57.629Z,1004.55
2022-09-09T10:23:57.639Z,1004.60
2022-09-09T10:24:57.634Z,1004.67
2022-09-09T10:25:57.608Z,1004.56
2022-09-09T10:26:57.620Z,1004.50
2022-09-09T10:28:00.600Z,1004.56
2022-09-09T10:28:58.641Z,1004.52
2022-09-09T10:29:57.553Z,1004.56
2022-09-09T10:30:57.629Z,1004.53
2022-09-09T10:31:57.542Z,1004.57
2022-09-09T10:32:57.574Z,1004.55
2022-09-09T10:33:57.497Z,1004.47
2022-09-09T10:34:57.483Z,1004.45
2022-09-09T10:35:57.495Z,1004.56
2022-09-09T10:36:57.495Z,1004.55
2022-09-09T10:37:57.489Z,1004.43
2022-09-09T10:38:57.465Z,1004.52
2022-09-09T10:39:57.588Z,1004.47
2022-09-09T10:40:57.431Z,1004.50
2022-09-09T10:41:57.445Z,1004.47
2022-09-09T10:42:57.428Z,1004.48
2022-09-09T10:44:00.282Z,1004.47
2022-09-09T10:44:58.360Z,1004.45
2022-09-09T10:45:57.443Z,1004.47
2022-09-09T10:47:01.785Z,1004.43
2022-09-09T10:47:57.415Z,1004.40
2022-09-09T10:48:57.380Z,1004.48
2022-09-09T10:49:57.389Z,1004.40
2022-09-09T10:51:00.969Z,1004.46
2022-09-09T10:51:58.340Z,1004.46
2022-09-09T10:52:57.353Z,1004.47
2022-09-09T10:53:57.390Z,1004.44
2022-09-09T10:54:57.299Z,1004.41
2022-09-09T10:55:57.261Z,1004.36
2022-09-09T10:56:57.261Z,1004.36
2022-09-09T10:57:58.719Z,1004.34
2022-09-09T10:58:57.274Z,1004.34
2022-09-09T10:59:57.268Z,1004.35
2022-09-09T11:00:58.275Z,1004.36
2022-09-09T11:01:57.233Z,1004.38
2022-09-09T11:02:57.236Z,1004.34
2022-09-09T11:03:57.183Z,1004.33
2022-09-09T11:04:57.464Z,1004.34
2022-09-09T11:05:58.681Z,1004.29
2022-09-09T11:06:57.538Z,1004.26
2022-09-09T11:07:58.083Z,1004.24
2022-09-09T11:08:57.449Z,1004.27
2022-09-09T11:09:57.115Z,1004.27
2022-09-09T11:10:58.534Z,1004.25
2022-09-09T11:11:57.104Z,1004.26
2022-09-09T11:12:57.149Z,1004.28
2022-09-09T11:13:57.077Z,1004.31
2022-09-09T11:14:57.275Z,1004.26
2022-09-09T11:15:57.533Z,1004.29
2022-09-09T11:16:57.118Z,1004.29
2022-09-09T11:17:57.007Z,1004.33
2022-09-09T11:18:56.997Z,1004.35
2022-09-09T11:19:57.001Z,1004.37
2022-09-09T11:20:57.014Z,1004.34
2022-09-09T11:21:57.111Z,1004.39
2022-09-09T11:22:58.955Z,1004.33
2022-09-09T11:23:56.986Z,1004.28
2022-09-09T11:24:56.973Z,1004.31
2022-09-09T11:25:56.932Z,1004.36
2022-09-09T11:26:56.954Z,1004.28
2022-09-09T11:27:57.894Z,1004.34
2022-09-09T11:28:58.026Z,1004.35
2022-09-09T11:29:56.878Z,1004.36
2022-09-09T11:30:57.660Z,1004.29
2022-09-09T11:31:56.864Z,1004.18
2022-09-09T11:32:56.872Z,1004.27
2022-09-09T11:33:56.851Z,1004.25
2022-09-09T11:34:56.843Z,1004.24
2022-09-09T11:35:56.833Z,1004.25
2022-09-09T11:36:56.817Z,1004.25
2022-09-09T11:37:56.808Z,1004.28
2022-09-09T11:38:56.823Z,1004.26
2022-09-09T11:39:56.822Z,1004.28
2022-09-09T11:40:56.774Z,1004.26
2022-09-09T11:41:56.758Z,1004.26
2022-09-09T11:42:56.737Z,1004.23
2022-09-09T11:43:56.724Z,1004.29
2022-09-09T11:44:56.713Z,1004.32
2022-09-09T11:46:00.393Z,1004.36
2022-09-09T11:46:56.746Z,1004.26
2022-09-09T11:47:57.659Z,1004.32
2022-09-09T11:48:56.671Z,1004.34
2022-09-09T11:49:57.359Z,1004.37
2022-09-09T11:50:56.654Z,1004.36
2022-09-09T11:51:56.828Z,1004.39
2022-09-09T11:52:56.625Z,1004.32
2022-09-09T11:53:56.617Z,1004.36
2022-09-09T11:54:56.615Z,1004.39
2022-09-09T11:55:56.590Z,1004.28
2022-09-09T11:56:57.012Z,1004.28
2022-09-09T11:57:56.636Z,1004.31
2022-09-09T11:58:56.551Z,1004.32
2022-09-09T11:59:56.565Z,1004.30
2022-09-09T12:00:56.530Z,1004.30
2022-09-09T12:01:56.682Z,1004.28
2022-09-09T12:02:56.540Z,1004.24
2022-09-09T12:03:56.561Z,1004.26
2022-09-09T12:04:57.528Z,1004.25
2022-09-09T12:05:56.493Z,1004.20
2022-09-09T12:06:56.854Z,1004.24
2022-09-09T12:07:56.455Z,1004.28